createdAt,value
2022-09-05T00:00:11.973Z,61.40
2022-09-05T00:02:54.007Z,61.58
2022-09-05T00:05:59.991Z,61.57
2022-09-05T00:08:56.356Z,61.35
2022-09-05T00:11:40.458Z,61.25
2022-09-05T00:15:14.820Z,61.60
2022-09-05T00:18:11.909Z,61.11
2022-09-05T00:24:33.058Z,61.88
2022-09-05T00:24:43.574Z,61.37
2022-09-05T00:26:56.169Z,62.39
2022-09-05T00:31:08.116Z,62.80
2022-09-05T00:33:00.949Z,62.71
2022-09-05T00:35:54.215Z,62.46
2022-09-05T00:38:33.433Z,63.10
2022-09-05T00:41:12.153Z,62.70
2022-09-05T00:43:45.508Z,63.63
2022-09-05T00:46:19.291Z,64.15
2022-09-05T00:49:00.186Z,64.34
2022-09-05T00:51:38.989Z,64.28
2022-09-05T00:55:03.262Z,64.54
2022-09-05T00:58:09.352Z,63.88
2022-09-05T01:00:53.061Z,64.31
2022-09-05T01:03:53.543Z,64.12
2022-09-05T01:06:38.374Z,63.78
2022-09-05T01:09:22.901Z,64.55
2022-09-05T01:12:10.518Z,65.00
2022-09-05T01:15:01.937Z,65.35
2022-09-05T01:17:52.458Z,65.02
2022-09-05T01:20:46.556Z,65.77
2022-09-05T01:23:50.081Z,65.45
2022-09-05T01:27:00.742Z,65.23
2022-09-05T01:29:44.771Z,65.55
2022-09-05T01:32:33.975Z,66.05
2022-09-05T01:35:36.402Z,65.97
2022-09-05T01:38:15.167Z,66.26
2022-09-05T01:41:17.810Z,65.91
2022-09-05T01:44:06.007Z,65.84
2022-09-05T01:46:45.471Z,65.52
2022-09-05T01:49:25.129Z,65.96
2022-09-05T01:52:26.672Z,66.60
2022-09-05T01:55:32.177Z,67.02
2022-09-05T01:58:14.821Z,66.84
2022-09-05T02:01:25.332Z,66.97
2022-09-05T02:04:07.118Z,67.42
2022-09-05T02:06:54.971Z,67.29
2022-09-05T02:09:58.232Z,68.05
2022-09-05T02:13:02.208Z,68.27
2022-09-05T02:15:59.355Z,67.63
2022-09-05T02:18:44.355Z,68.29
2022-09-05T02:21:28.883Z,68.53
2022-09-05T02:24:14.081Z,68.00
2022-09-05T02:27:08.699Z,68.43
2022-09-05T02:29:50.548Z,68.68
2022-09-05T02:32:25.925Z,68.75
2022-09-05T02:35:04.237Z,68.91
2022-09-05T02:39:05.454Z,68.64
2022-09-05T02:45:02.811Z,68.58
2022-09-05T02:45:21.827Z,68.97
2022-09-05T02:46:46.658Z,68.94
2022-09-05T02:52:16.796Z,68.78
2022-09-05T02:57:28.965Z,68.59
2022-09-05T02:57:41.149Z,68.41
2022-09-05T02:59:08.184Z,69.00
2022-09-05T03:01:55.910Z,69.27
2022-09-05T03:04:35.300Z,69.18
2022-09-05T03:07:19.913Z,69.21
2022-09-05T03:10:32.275Z,69.92
2022-09-05T03:13:54.505Z,69.99
2022-09-05T03:17:14.943Z,70.11
2022-09-05T03:20:40.883Z,70.69
2022-09-05T03:24:03.816Z,70.85
2022-09-05T03:27:10.511Z,70.30
2022-09-05T03:30:13.067Z,70.06
2022-09-05T03:33:30.923Z,70.38
2022-09-05T03:36:41.157Z,70.20
2022-09-05T03:40:15.206Z,70.27
2022-09-05T03:43:17.342Z,70.32
2022-09-05T03:46:13.004Z,70.55
2022-09-05T03:52:13.146Z,71.17
2022-09-05T03:57:11.479Z,70.99
2022-09-05T03:57:15.451Z,71.22
2022-09-05T03:59:06.342Z,71.53
2022-09-05T04:03:30.787Z,71.59
2022-09-05T04:08:16.468Z,71.64
2022-09-05T04:08:28.123Z,71.69
2022-09-05T04:10:37.524Z,71.52
2022-09-05T04:13:17.302Z,71.55
2022-09-05T04:16:01.382Z,71.91
2022-09-05T04:18:39.178Z,71.32
2022-09-05T04:21:15.831Z,72.10
2022-09-05T04:24:01.349Z,72.29
2022-09-05T04:27:01.716Z,72.03
2022-09-05T04:29:47.702Z,72.25
2022-09-05T04:32:34.775Z,72.08
2022-09-05T04:35:26.639Z,72.21
2022-09-05T04:38:06.111Z,72.01
2022-09-05T04:40:43.957Z,71.81
2022-09-05T04:43:25.255Z,71.38
2022-09-05T04:46:01.162Z,71.41
2022-09-05T04:48:39.261Z,71.22
2022-09-05T04:51:29.166Z,71.43
2022-09-05T04:54:30.054Z,71.72
2022-09-05T04:57:13.603Z,71.22
2022-09-05T05:06:02.647Z,71.85
2022-09-05T05:06:03.005Z,71.53
2022-09-05T05:06:16.109Z,70.94
2022-09-05T05:08:52.138Z,70.97
2022-09-05T05:17:54.816Z,70.59
2022-09-05T05:18:07.221Z,70.71
2022-09-05T05:18:14.522Z,70.25
2022-09-05T05:20:40.598Z,70.38
2022-09-05T05:23:17.908Z,70.05
2022-09-05T05:25:53.803Z,68.60
2022-09-05T05:28:32.591Z,67.81
2022-09-05T05:31:14.653Z,67.02
2022-09-05T05:33:49.960Z,66.72
2022-09-05T05:36:25.529Z,66.64
2022-09-05T05:39:05.048Z,65.53
2022-09-05T05:41:44.398Z,65.21
2022-09-05T05:44:16.932Z,64.36
2022-09-05T05:46:59.225Z,64.58
2022-09-05T05:49:49.309Z,64.38
2022-09-05T05:53:05.707Z,64.57
2022-09-05T05:56:04.190Z,64.00
2022-09-05T05:58:59.706Z,64.24
2022-09-05T06:02:26.702Z,64.62
2022-09-05T06:05:27.725Z,64.08
2022-09-05T06:10:58.941Z,63.83
2022-09-05T06:15:04.153Z,63.10
2022-09-05T06:15:50.688Z,63.30
2022-09-05T06:19:11.083Z,63.21
2022-09-05T06:22:21.380Z,62.67
2022-09-05T06:25:44.447Z,63.39
2022-09-05T06:28:25.554Z,62.67
2022-09-05T06:31:30.799Z,63.00
2022-09-05T06:34:33.316Z,63.07
2022-09-05T06:37:19.873Z,62.77
2022-09-05T06:40:09.794Z,62.46
2022-09-05T06:43:05.639Z,62.78
2022-09-05T06:46:55.233Z,62.35
2022-09-05T06:49:29.736Z,62.34
2022-09-05T06:53:16.716Z,63.21
2022-09-05T06:56:29.246Z,62.24
2022-09-05T07:00:00.822Z,62.18
2022-09-05T07:02:58.058Z,61.77
2022-09-05T07:05:44.824Z,61.69
2022-09-05T07:08:36.128Z,61.69
2022-09-05T07:11:16.896Z,61.30
2022-09-05T07:13:59.032Z,61.39
2022-09-05T07:16:47.609Z,61.28
2022-09-05T07:19:29.019Z,60.86
2022-09-05T07:22:45.932Z,61.08
2022-09-05T07:25:11.446Z,60.75
2022-09-05T07:28:26.423Z,60.71
2022-09-05T07:30:51.526Z,60.46
2022-09-05T07:33:22.962Z,60.78
2022-09-05T07:35:55.507Z,60.33
2022-09-05T07:38:38.089Z,61.00
2022-09-05T07:41:25.373Z,60.44
2022-09-05T07:44:00.298Z,59.90
2022-09-05T07:46:33.627Z,60.07
2022-09-05T07:49:07.590Z,59.38
2022-09-05T07:56:54.486Z,58.94
2022-09-05T07:57:01.604Z,58.82
2022-09-05T07:57:51.411Z,58.99
2022-09-05T08:00:26.885Z,58.55
2022-09-05T08:03:00.887Z,58.57
2022-09-05T08:05:43.288Z,58.39
2022-09-05T08:08:19.616Z,57.62
2022-09-05T08:11:24.096Z,57.29
2022-09-05T08:14:43.749Z,56.89
2022-09-05T08:16:56.685Z,57.03
2022-09-05T08:19:54.233Z,56.38
2022-09-05T08:22:31.906Z,55.94
2022-09-05T08:25:15.207Z,55.42
2022-09-05T08:28:06.290Z,55.10
2022-09-05T08:30:44.333Z,55.21
2022-09-05T08:33:21.513Z,55.94
2022-09-05T08:36:01.044Z,55.68
2022-09-05T08:38:35.984Z,55.26
2022-09-05T08:41:30.060Z,55.87
2022-09-05T08:46:37.858Z,55.24
2022-09-05T08:47:26.237Z,55.58
2022-09-05T08:50:29.192Z,55.47
2022-09-05T08:53:36.012Z,55.06
2022-09-05T08:56:10.145Z,55.37
2022-09-05T08:59:28.180Z,54.97
2022-09-05T09:02:44.753Z,54.67
2022-09-05T09:05:14.336Z,54.29
2022-09-05T09:07:54.128Z,53.86
2022-09-05T09:10:50.164Z,53.62
2022-09-05T09:13:37.555Z,53.32
2022-09-05T09:16:15.778Z,54.08
2022-09-05T09:19:09.282Z,53.66
2022-09-05T09:21:54.083Z,53.33
2022-09-05T09:24:39.185Z,53.09
2022-09-05T09:27:24.211Z,52.98
2022-09-05T09:30:14.098Z,52.58
2022-09-05T09:32:47.537Z,52.36
2022-09-05T09:35:23.947Z,52.53
2022-09-05T09:38:36.059Z,52.26
2022-09-05T09:41:39.571Z,52.40
2022-09-05T09:45:27.415Z,52.37
2022-09-05T09:48:56.826Z,51.45
2022-09-05T09:52:02.339Z,51.61
2022-09-05T09:55:23.406Z,51.45
2022-09-05T09:58:22.997Z,51.23
2022-09-05T10:01:02.653Z,51.12
2022-09-05T10:10:38.302Z,50.90
2022-09-05T10:10:50.234Z,50.33
2022-09-05T10:14:49.391Z,50.23
2022-09-05T10:17:44.617Z,49.95
2022-09-05T10:20:39.417Z,49.71
2022-09-05T10:23:58.679Z,49.47
2022-09-05T10:27:13.146Z,49.28
2022-09-05T10:29:57.165Z,49.12
2022-09-05T10:35:09.967Z,49.08
2022-09-05T10:35:37.363Z,48.79
2022-09-05T10:38:15.740Z,48.61
2022-09-05T10:41:21.695Z,48.71
2022-09-05T10:43:51.480Z,48.48
2022-09-05T10:46:50.083Z,48.07
2022-09-05T10:49:27.344Z,48.20
2022-09-05T10:52:19.190Z,47.55
2022-09-05T10:55:21.932Z,47.96
2022-09-05T10:58:14.420Z,47.69
2022-09-05T11:02:22.750Z,46.36
2022-09-05T11:04:14.744Z,46.72
2022-09-05T11:06:55.556Z,47.09
2022-09-05T11:09:47.810Z,46.41
2022-09-05T11:12:42.179Z,46.20
2022-09-05T11:15:29.956Z,46.06
2022-09-05T11:18:04.940Z,46.07
2022-09-05T11:20:53.576Z,46.32
2022-09-05T11:23:32.058Z,45.58
2022-09-05T11:26:07.776Z,45.51
2022-09-05T11:28:59.766Z,45.64
2022-09-05T11:32:42.180Z,45.80
2022-09-05T11:40:04.705Z,44.93
2022-09-05T11:40:10.547Z,45.59
2022-09-05T11:42:21.636Z,44.63
2022-09-05T11:45:39.690Z,45.07
2022-09-05T11:49:01.180Z,45.09
2022-09-05T11:52:17.332Z,44.32
2022-09-05T11:55:22.823Z,44.59
2022-09-05T11:58:45.053Z,44.32
2022-09-05T12:01:41.568Z,43.95
2022-09-05T12:05:49.483Z,43.73
2022-09-05T12:08:06.363Z,43.91
2022-09-05T12:10:53.053Z,43.90
2022-09-05T12:13:42.465Z,43.92
2022-09-05T12:16:45.926Z,43.80
2022-09-05T12:19:31.110Z,44.16
2022-09-05T12:22:27.734Z,43.50
2022-09-05T12:27:41.717Z,43.45
2022-09-05T12:29:32.819Z,42.92
2022-09-05T12:32:52.380Z,43.26
2022-09-05T12:40:44.762Z,42.67
2022-09-05T12:41:39.293Z,42.61
2022-09-05T12:42:09.708Z,42.98
2022-09-05T12:44:37.122Z,42.77
2022-09-05T12:46:33.331Z,42.57
2022-09-05T12:49:08.446Z,42.40
2022-09-05T12:51:46.223Z,42.40
2022-09-05T12:54:34.717Z,42.16
2022-09-05T13:02:27.793Z,41.99
2022-09-05T13:03:03.809Z,42.04
2022-09-05T13:03:40.858Z,42.36
2022-09-05T13:06:04.175Z,41.84
2022-09-05T13:08:52.866Z,42.18
2022-09-05T13:14:56.090Z,42.01
2022-09-05T13:14:57.931Z,41.96
2022-09-05T13:17:31.090Z,42.36
2022-09-05T13:20:04.378Z,42.29
2022-09-05T13:22:38.505Z,42.27
2022-09-05T13:25:26.928Z,42.16
2022-09-05T13:28:02.444Z,42.04
2022-09-05T13:36:42.101Z,41.90
2022-09-05T13:38:04.297Z,41.72
2022-09-05T13:38:11.029Z,41.84
2022-09-05T13:39:28.269Z,41.59
2022-09-05T13:42:03.456Z,41.84
2022-09-05T13:44:41.402Z,41.82
2022-09-05T13:47:29.995Z,42.66
2022-09-05T13:50:22.295Z,43.47
2022-09-05T13:52:58.566Z,43.04
2022-09-05T13:55:45.791Z,42.49
2022-09-05T13:58:26.667Z,42.30
2022-09-05T14:01:34.919Z,42.47
2022-09-05T14:05:06.456Z,42.72
2022-09-05T14:08:17.916Z,42.37
2022-09-05T14:11:45.024Z,42.36
2022-09-05T14:17:54.140Z,41.79
2022-09-05T14:20:49.786Z,41.51
2022-09-05T14:23:27.058Z,41.46
2022-09-05T14:26:05.039Z,41.58
2022-09-05T14:28:46.584Z,41.22
2022-09-05T14:32:59.020Z,41.13
2022-09-05T14:37:55.237Z,41.25
2022-09-05T14:38:14.559Z,41.19
2022-09-05T14:41:45.745Z,40.85
2022-09-05T14:45:11.734Z,40.80
2022-09-05T14:48:20.280Z,40.91
2022-09-05T14:51:25.969Z,41.44
2022-09-05T14:54:01.574Z,41.70
2022-09-05T15:00:12.105Z,41.80
2022-09-05T15:02:48.048Z,41.85
2022-09-05T15:02:54.233Z,41.59
2022-09-05T15:05:35.685Z,41.88
2022-09-05T15:09:36.602Z,41.92
2022-09-05T15:12:21.503Z,41.95
2022-09-05T15:13:58.023Z,42.26
2022-09-05T15:16:26.924Z,42.44
2022-09-05T15:18:56.302Z,42.60
2022-09-05T15:21:33.893Z,41.96
2022-09-05T15:24:16.918Z,41.99
2022-09-05T15:26:55.615Z,42.25
2022-09-05T15:29:27.931Z,42.73
2022-09-05T15:32:17.574Z,42.78
2022-09-05T15:34:46.113Z,43.06
2022-09-05T15:37:33.217Z,43.04
2022-09-05T15:40:07.704Z,42.87
2022-09-05T15:42:55.506Z,42.85
2022-09-05T15:45:29.605Z,42.63
2022-09-05T15:48:16.383Z,42.92
2022-09-05T15:50:51.109Z,43.09
2022-09-05T15:53:27.253Z,43.47
2022-09-05T15:56:00.980Z,43.49
2022-09-05T15:58:54.108Z,43.72
2022-09-05T16:01:58.028Z,44.00
2022-09-05T16:08:29.459Z,43.83
2022-09-05T16:10:38.772Z,43.70
2022-09-05T16:10:49.375Z,43.84
2022-09-05T16:13:15.558Z,43.85
2022-09-05T16:20:33.241Z,44.00
2022-09-05T16:23:20.086Z,44.04
2022-09-05T16:23:28.686Z,44.45
2022-09-05T16:24:58.137Z,44.44
2022-09-05T16:27:43.889Z,44.91
2022-09-05T16:30:21.121Z,45.07
2022-09-05T16:32:54.998Z,45.36
2022-09-05T16:35:26.745Z,45.74
2022-09-05T16:38:08.075Z,45.67
2022-09-05T16:40:43.180Z,45.48
2022-09-05T16:43:19.228Z,46.06
2022-09-05T16:45:58.401Z,46.03
2022-09-05T16:48:45.058Z,46.29
2022-09-05T16:51:35.300Z,46.43
2022-09-05T16:54:14.593Z,46.62
2022-09-05T16:56:48.714Z,45.99
2022-09-05T16:59:21.859Z,46.28
2022-09-05T17:02:08.960Z,46.24
2022-09-05T17:05:05.949Z,46.26
2022-09-05T17:08:01.932Z,46.44
2022-09-05T17:10:41.659Z,47.22
2022-09-05T17:13:15.220Z,47.22
2022-09-05T17:15:52.881Z,47.25
2022-09-05T17:18:27.870Z,47.62
2022-09-05T17:21:06.836Z,47.74
2022-09-05T17:29:19.470Z,48.31
2022-09-05T17:29:42.136Z,48.64
2022-09-05T17:32:53.139Z,49.62
2022-09-05T17:35:42.857Z,49.65
2022-09-05T17:38:49.670Z,49.93
2022-09-05T17:41:55.042Z,50.14
2022-09-05T17:44:30.279Z,51.03
2022-09-05T17:47:15.310Z,51.46
2022-09-05T17:49:46.358Z,51.74
2022-09-05T17:52:22.800Z,51.75
2022-09-05T17:54:55.526Z,52.06
2022-09-05T17:57:42.368Z,52.29
2022-09-05T18:01:07.585Z,52.97
2022-09-05T18:04:16.734Z,52.82
2022-09-05T18:06:59.265Z,53.20
2022-09-05T18:09:58.993Z,53.53
2022-09-05T18:13:12.816Z,53.96
2022-09-05T18:16:10.489Z,54.18
2022-09-05T18:19:29.098Z,54.09
2022-09-05T18:21:49.680Z,54.36
2022-09-05T18:27:43.704Z,54.81
2022-09-05T18:33:54.407Z,54.46
2022-09-05T18:36:34.920Z,54.29
2022-09-05T18:39:43.655Z,54.69
2022-09-05T18:42:25.890Z,55.06
2022-09-05T18:45:01.680Z,54.67
2022-09-05T18:47:51.127Z,55.09
2022-09-05T18:50:32.244Z,55.27
2022-09-05T18:53:08.919Z,54.82
2022-09-05T18:56:12.773Z,55.42
2022-09-05T18:58:51.685Z,55.68
2022-09-05T19:01:29.136Z,56.23
2022-09-05T19:04:06.196Z,55.83
2022-09-05T19:06:45.355Z,55.84
2022-09-05T19:09:26.711Z,56.30
2022-09-05T19:12:35.086Z,56.34
2022-09-05T19:14:57.171Z,56.69
2022-09-05T19:17:37.652Z,56.92
2022-09-05T19:20:32.246Z,57.34
2022-09-05T19:23:10.367Z,57.05
2022-09-05T19:25:44.497Z,56.74
2022-09-05T19:36:45.067Z,57.39
2022-09-05T19:36:48.933Z,57.15
2022-09-05T19:37:05.137Z,57.22
2022-09-05T19:37:29.593Z,57.15
2022-09-05T19:43:39.050Z,57.60
2022-09-05T19:47:36.730Z,58.07
2022-09-05T19:47:39.463Z,57.42
2022-09-05T19:48:27.741Z,57.77
2022-09-05T19:51:16.194Z,57.71
2022-09-05T19:53:48.884Z,58.00
2022-09-05T19:56:38.473Z,57.97
2022-09-05T19:59:18.706Z,58.25
2022-09-05T20:01:48.861Z,58.09
2022-09-05T20:04:18.866Z,57.64
2022-09-05T20:06:50.458Z,58.09
2022-09-05T20:09:21.480Z,57.77
2022-09-05T20:11:52.518Z,58.03
2022-09-05T20:14:26.589Z,58.35
2022-09-05T20:16:58.855Z,58.32
2022-09-05T20:19:32.253Z,58.43
2022-09-05T20:22:17.439Z,58.07
2022-09-05T20:24:56.196Z,57.98
2022-09-05T20:27:28.321Z,57.55
2022-09-05T20:30:00.670Z,57.88
2022-09-05T20:32:38.723Z,58.95
2022-09-05T20:39:08.626Z,57.97
2022-09-05T20:43:11.679Z,58.37
2022-09-05T20:43:29.408Z,58.30
2022-09-05T20:43:57.637Z,58.37
2022-09-05T20:50:44.435Z,58.40
2022-09-05T20:54:16.797Z,58.99
2022-09-05T20:54:20.151Z,58.64
2022-09-05T20:55:39.609Z,58.99
2022-09-05T20:58:13.187Z,58.66
2022-09-05T21:01:20.271Z,58.67
2022-09-05T21:03:40.999Z,58.54
2022-09-05T21:06:23.511Z,58.71
2022-09-05T21:08:55.898Z,58.58
2022-09-05T21:11:34.022Z,58.47
2022-09-05T21:14:06.098Z,59.01
2022-09-05T21:16:44.896Z,59.02
2022-09-05T21:19:34.417Z,59.06
2022-09-05T21:22:05.132Z,59.19
2022-09-05T21:24:33.564Z,58.86
2022-09-05T21:27:18.717Z,59.22
2022-09-05T21:29:58.541Z,59.33
2022-09-05T21:32:41.346Z,59.64
2022-09-05T21:35:34.555Z,59.13
2022-09-05T21:38:01.547Z,59.20
2022-09-05T21:40:29.901Z,59.50
2022-09-05T21:47:39.255Z,59.34
2022-09-05T21:47:50.096Z,59.50
2022-09-05T21:48:37.724Z,59.55
2022-09-05T21:51:10.120Z,59.51
2022-09-05T21:59:00.475Z,60.03
2022-09-05T21:59:24.723Z,59.64
2022-09-05T21:59:41.696Z,60.07
2022-09-05T22:02:16.444Z,60.14
2022-09-05T22:04:47.094Z,59.97
2022-09-05T22:07:31.979Z,59.81
2022-09-05T22:10:03.430Z,59.84
2022-09-05T22:12:35.650Z,60.62
2022-09-05T22:15:26.783Z,60.18
2022-09-05T22:18:02.565Z,59.79
2022-09-05T22:20:53.524Z,59.74
2022-09-05T22:23:37.678Z,60.40
2022-09-05T22:26:06.591Z,60.41
2022-09-05T22:28:46.159Z,59.98
2022-09-05T22:31:16.011Z,60.27
2022-09-05T22:33:44.234Z,60.57
2022-09-05T22:36:18.779Z,60.21
2022-09-05T22:38:47.623Z,60.16
2022-09-05T22:41:15.760Z,60.09
2022-09-05T22:43:46.296Z,60.00
2022-09-05T22:46:15.911Z,60.01
2022-09-05T22:48:43.973Z,60.43
2022-09-05T22:51:12.126Z,60.66
2022-09-05T22:53:40.540Z,60.35
2022-09-05T22:56:09.733Z,60.56
2022-09-05T22:58:39.881Z,59.90
2022-09-05T23:01:09.033Z,59.95
2022-09-05T23:03:38.552Z,59.93
2022-09-05T23:06:10.101Z,60.09
2022-09-05T23:08:38.135Z,59.88
2022-09-05T23:11:09.051Z,59.88
2022-09-05T23:13:37.139Z,60.50
2022-09-05T23:16:05.866Z,61.02
2022-09-05T23:18:34.893Z,61.39
2022-09-05T23:21:06.987Z,60.85
2022-09-05T23:23:36.950Z,61.28
2022-09-05T23:26:09.470Z,61.34
2022-09-05T23:28:42.682Z,61.08
2022-09-05T23:31:13.103Z,61.08
2022-09-05T23:33:42.865Z,61.15
2022-09-05T23:36:14.507Z,60.80
2022-09-05T23:38:43.333Z,61.43
2022-09-05T23:41:15.287Z,61.22
2022-09-05T23:43:44.031Z,61.18
2022-09-05T23:46:12.157Z,60.90
2022-09-05T23:48:40.357Z,60.95
2022-09-05T23:51:12.033Z,61.45
2022-09-05T23:53:40.557Z,61.44
2022-09-05T23:56:12.249Z,61.76
2022-09-05T23:58:40.536Z,61.55
